sensor_id;sensor_type;location;lat;lon;timestamp;temperature;humidity
43185;DHT22;28803;52.308;19.096;2022-11-20T00:01:19;-2.60;99.90
43185;DHT22;28803;52.308;19.096;2022-11-20T00:03:46;-2.60;99.90
43185;DHT22;28803;52.308;19.096;2022-11-20T00:06:16;-2.50;99.90
43185;DHT22;28803;52.308;19.096;2022-11-20T00:08:44;-2.50;99.90
43185;DHT22;28803;52.308;19.096;2022-11-20T00:13:46;-2.40;99.90
43185;DHT22;28803;52.308;19.096;2022-11-20T00:16:16;-2.40;99.90
43185;DHT22;28803;52.308;19.096;2022-11-20T00:18:44;-2.40;99.90
43185;DHT22;28803;52.308;19.096;2022-11-20T00:21:14;-2.40;99.90
43185;DHT22;28803;52.308;19.096;2022-11-20T00:23:42;-2.40;99.90
43185;DHT22;28803;52.308;19.096;2022-11-20T00:26:11;-2.40;99.90
43185;DHT22;28803;52.308;19.096;2022-11-20T00:28:39;-2.40;99.90
43185;DHT22;28803;52.308;19.096;2022-11-20T00:31:09;-2.40;99.90
43185;DHT22;28803;52.308;19.096;2022-11-20T00:33:36;-2.40;99.90
43185;DHT22;28803;52.308;19.096;2022-11-20T00:36:05;-2.40;99.90
43185;DHT22;28803;52.308;19.096;2022-11-20T00:38:33;-2.40;99.90
43185;DHT22;28803;52.308;19.096;2022-11-20T00:41:03;-2.40;99.90
43185;DHT22;28803;52.308;19.096;2022-11-20T00:43:30;-2.40;99.90
43185;DHT22;28803;52.308;19.096;2022-11-20T00:45:59;-2.30;99.90
43185;DHT22;28803;52.308;19.096;2022-11-20T00:48:26;-2.40;99.90
43185;DHT22;28803;52.308;19.096;2022-11-20T00:50:54;-2.30;99.90
43185;DHT22;28803;52.308;19.096;2022-11-20T00:53:21;-2.30;99.90
43185;DHT22;28803;52.308;19.096;2022-11-20T00:58:22;-2.30;99.90
43185;DHT22;28803;52.308;19.096;2022-11-20T01:00:50;-2.20;99.90
43185;DHT22;28803;52.308;19.096;2022-11-20T01:03:17;-2.20;99.90
43185;DHT22;28803;52.308;19.096;2022-11-20T01:05:51;-2.20;99.90
43185;DHT22;28803;52.308;19.096;2022-11-20T01:08:18;-2.20;99.90
43185;DHT22;28803;52.308;19.096;2022-11-20T01:10:45;-2.20;99.90
43185;DHT22;28803;52.308;19.096;2022-11-20T01:13:12;-2.20;99.90
43185;DHT22;28803;52.308;19.096;2022-11-20T01:16:03;-2.10;99.90
43185;DHT22;28803;52.308;19.096;2022-11-20T01:18:30;-2.10;99.90
43185;DHT22;28803;52.308;19.096;2022-11-20T01:21:18;-2.10;99.90
43185;DHT22;28803;52.308;19.096;2022-11-20T01:23:47;-2.10;99.90
43185;DHT22;28803;52.308;19.096;2022-11-20T01:26:24;-2.10;99.90
43185;DHT22;28803;52.308;19.096;2022-11-20T01:28:52;-2.10;99.90
43185;DHT22;28803;52.308;19.096;2022-11-20T01:31:31;-2.20;99.90
43185;DHT22;28803;52.308;19.096;2022-11-20T01:34:06;-2.30;99.90
43185;DHT22;28803;52.308;19.096;2022-11-20T01:36:36;-2.30;99.90
43185;DHT22;28803;52.308;19.096;2022-11-20T01:39:06;-2.30;99.90
43185;DHT22;28803;52.308;19.096;2022-11-20T01:41:34;-2.30;99.90
43185;DHT22;28803;52.308;19.096;2022-11-20T01:44:22;-2.30;99.90
43185;DHT22;28803;52.308;19.096;2022-11-20T01:46:57;-2.40;99.90
43185;DHT22;28803;52.308;19.096;2022-11-20T01:49:33;-2.40;99.90
43185;DHT22;28803;52.308;19.096;2022-11-20T01:52:05;-2.40;99.90
43185;DHT22;28803;52.308;19.096;2022-11-20T01:54:38;-2.30;99.90
43185;DHT22;28803;52.308;19.096;2022-11-20T01:57:10;-2.30;99.90
43185;DHT22;28803;52.308;19.096;2022-11-20T01:59:41;-2.30;99.90
43185;DHT22;28803;52.308;19.096;2022-11-20T02:02:10;-2.30;99.90
43185;DHT22;28803;52.308;19.096;2022-11-20T02:04:37;-2.40;99.90
43185;DHT22;28803;52.308;19.096;2022-11-20T02:07:05;-2.40;99.90
43185;DHT22;28803;52.308;19.096;2022-11-20T02:09:32;-2.40;99.90
43185;DHT22;28803;52.308;19.096;2022-11-20T02:12:00;-2.40;99.90
43185;DHT22;28803;52.308;19.096;2022-11-20T02:14:27;-2.50;99.90
43185;DHT22;28803;52.308;19.096;2022-11-20T02:16:55;-2.50;99.90
43185;DHT22;28803;52.308;19.096;2022-11-20T02:19:28;-2.50;99.90
43185;DHT22;28803;52.308;19.096;2022-11-20T02:24:32;-2.50;99.90
43185;DHT22;28803;52.308;19.096;2022-11-20T02:27:09;-2.60;99.90
43185;DHT22;28803;52.308;19.096;2022-11-20T02:32:27;-2.60;99.90
43185;DHT22;28803;52.308;19.096;2022-11-20T02:34:54;-2.60;99.90
43185;DHT22;28803;52.308;19.096;2022-11-20T02:37:22;-2.70;99.90
43185;DHT22;28803;52.308;19.096;2022-11-20T02:39:51;-2.60;99.90
43185;DHT22;28803;52.308;19.096;2022-11-20T02:42:19;-2.60;99.90
43185;DHT22;28803;52.308;19.096;2022-11-20T02:44:46;-2.60;99.90
43185;DHT22;28803;52.308;19.096;2022-11-20T02:47:13;-2.60;99.90
43185;DHT22;28803;52.308;19.096;2022-11-20T02:49:40;-2.50;99.90
43185;DHT22;28803;52.308;19.096;2022-11-20T02:52:07;-2.50;99.90
43185;DHT22;28803;52.308;19.096;2022-11-20T02:54:34;-2.50;99.90
43185;DHT22;28803;52.308;19.096;2022-11-20T02:57:01;-2.50;99.90
43185;DHT22;28803;52.308;19.096;2022-11-20T02:59:28;-2.40;99.90
43185;DHT22;28803;52.308;19.096;2022-11-20T03:01:55;-2.40;99.90
43185;DHT22;28803;52.308;19.096;2022-11-20T03:04:22;-2.40;99.90
43185;DHT22;28803;52.308;19.096;2022-11-20T03:06:49;-2.40;99.90
43185;DHT22;28803;52.308;19.096;2022-11-20T03:09:16;-2.40;99.90
43185;DHT22;28803;52.308;19.096;2022-11-20T03:11:44;-2.40;99.90
43185;DHT22;28803;52.308;19.096;2022-11-20T03:14:11;-2.30;99.90
43185;DHT22;28803;52.308;19.096;2022-11-20T03:16:38;-2.30;99.90
43185;DHT22;28803;52.308;19.096;2022-11-20T03:19:05;-2.30;99.90
43185;DHT22;28803;52.308;19.096;2022-11-20T03:21:35;-2.30;99.90
43185;DHT22;28803;52.308;19.096;2022-11-20T03:24:02;-2.30;99.90
43185;DHT22;28803;52.308;19.096;2022-11-20T03:26:30;-2.30;99.90
43185;DHT22;28803;52.308;19.096;2022-11-20T03:29:00;-2.20;99.90
43185;DHT22;28803;52.308;19.096;2022-11-20T03:31:30;-2.30;99.90
43185;DHT22;28803;52.308;19.096;2022-11-20T03:33:58;-2.30;99.90
43185;DHT22;28803;52.308;19.096;2022-11-20T03:36:26;-2.30;99.90
43185;DHT22;28803;52.308;19.096;2022-11-20T03:38:55;-2.20;99.90
43185;DHT22;28803;52.308;19.096;2022-11-20T03:41:28;-2.20;99.90
43185;DHT22;28803;52.308;19.096;2022-11-20T03:43:57;-2.20;99.90
43185;DHT22;28803;52.308;19.096;2022-11-20T03:46:25;-2.20;99.90
43185;DHT22;28803;52.308;19.096;2022-11-20T03:48:53;-2.20;99.90
43185;DHT22;28803;52.308;19.096;2022-11-20T03:51:22;-2.20;99.90
43185;DHT22;28803;52.308;19.096;2022-11-20T03:53:51;-2.20;99.90
43185;DHT22;28803;52.308;19.096;2022-11-20T03:56:20;-2.20;99.90
43185;DHT22;28803;52.308;19.096;2022-11-20T03:58:48;-2.20;99.90
43185;DHT22;28803;52.308;19.096;2022-11-20T04:01:21;-2.20;99.90
43185;DHT22;28803;52.308;19.096;2022-11-20T04:03:49;-2.20;99.90
43185;DHT22;28803;52.308;19.096;2022-11-20T04:06:21;-2.20;99.90
43185;DHT22;28803;52.308;19.096;2022-11-20T04:08:49;-2.20;99.90
43185;DHT22;28803;52.308;19.096;2022-11-20T04:11:22;-2.20;99.90
43185;DHT22;28803;52.308;19.096;2022-11-20T04:13:57;-2.20;99.90
43185;DHT22;28803;52.308;19.096;2022-11-20T04:16:26;-2.20;99.90
43185;DHT22;28803;52.308;19.096;2022-11-20T04:18:56;-2.20;99.90
43185;DHT22;28803;52.308;19.096;2022-11-20T04:21:25;-2.20;99.90
43185;DHT22;28803;52.308;19.096;2022-11-20T04:23:53;-2.20;99.90
43185;DHT22;28803;52.308;19.096;2022-11-20T04:26:22;-2.20;99.90
43185;DHT22;28803;52.308;19.096;2022-11-20T04:28:49;-2.20;99.90
43185;DHT22;28803;52.308;19.096;2022-11-20T04:31:18;-2.20;99.90
43185;DHT22;28803;52.308;19.096;2022-11-20T04:33:46;-2.20;99.90
43185;DHT22;28803;52.308;19.096;2022-11-20T04:36:14;-2.20;99.90
43185;DHT22;28803;52.308;19.096;2022-11-20T04:38:41;-2.20;99.90
43185;DHT22;28803;52.308;19.096;2022-11-20T04:41:17;-2.20;99.90
43185;DHT22;28803;52.308;19.096;2022-11-20T04:43:48;-2.20;99.90
43185;DHT22;28803;52.308;19.096;2022-11-20T04:46:17;-2.20;99.90
43185;DHT22;28803;52.308;19.096;2022-11-20T04:48:44;-2.20;99.90
43185;DHT22;28803;52.308;19.096;2022-11-20T04:51:11;-2.20;99.90
43185;DHT22;28803;52.308;19.096;2022-11-20T04:53:39;-2.20;99.90
43185;DHT22;28803;52.308;19.096;2022-11-20T04:56:08;-2.20;99.90
43185;DHT22;28803;52.308;19.096;2022-11-20T04:58:37;-2.20;99.90
43185;DHT22;28803;52.308;19.096;2022-11-20T05:01:13;-2.20;99.90
43185;DHT22;28803;52.308;19.096;2022-11-20T05:03:41;-2.20;99.90
43185;DHT22;28803;52.308;19.096;2022-11-20T05:06:11;-2.20;99.90
43185;DHT22;28803;52.308;19.096;2022-11-20T05:08:38;-2.20;99.90
43185;DHT22;28803;52.308;19.096;2022-11-20T05:11:11;-2.20;99.90
43185;DHT22;28803;52.308;19.096;2022-11-20T05:13:38;-2.20;99.90
43185;DHT22;28803;52.308;19.096;2022-11-20T05:16:14;-2.20;99.90
43185;DHT22;28803;52.308;19.096;2022-11-20T05:18:41;-2.20;99.90
43185;DHT22;28803;52.308;19.096;2022-11-20T05:21:10;-2.30;99.90
43185;DHT22;28803;52.308;19.096;2022-11-20T05:23:37;-2.30;99.90
43185;DHT22;28803;52.308;19.096;2022-11-20T05:26:07;-2.30;99.90
43185;DHT22;28803;52.308;19.096;2022-11-20T05:28:34;-2.30;99.90
43185;DHT22;28803;52.308;19.096;2022-11-20T05:31:09;-2.30;99.90
43185;DHT22;28803;52.308;19.096;2022-11-20T05:33:37;-2.30;99.90
43185;DHT22;28803;52.308;19.096;2022-11-20T05:36:08;-2.30;99.90
43185;DHT22;28803;52.308;19.096;2022-11-20T05:38:35;-2.30;99.90
43185;DHT22;28803;52.308;19.096;2022-11-20T05:41:11;-2.30;99.90
43185;DHT22;28803;52.308;19.096;2022-11-20T05:43:40;-2.30;99.90
43185;DHT22;28803;52.308;19.096;2022-11-20T05:46:09;-2.30;99.90
43185;DHT22;28803;52.308;19.096;2022-11-20T05:48:37;-2.30;99.90
43185;DHT22;28803;52.308;19.096;2022-11-20T05:51:07;-2.40;99.90
43185;DHT22;28803;52.308;19.096;2022-11-20T05:53:35;-2.40;99.90
43185;DHT22;28803;52.308;19.096;2022-11-20T05:56:05;-2.40;99.90
43185;DHT22;28803;52.308;19.096;2022-11-20T05:58:32;-2.40;99.90
43185;DHT22;28803;52.308;19.096;2022-11-20T06:01:14;-2.50;99.90
43185;DHT22;28803;52.308;19.096;2022-11-20T06:03:43;-2.50;99.90
43185;DHT22;28803;52.308;19.096;2022-11-20T06:06:17;-2.50;99.90
43185;DHT22;28803;52.308;19.096;2022-11-20T06:08:44;-2.50;99.90
43185;DHT22;28803;52.308;19.096;2022-11-20T06:11:13;-2.50;99.90
43185;DHT22;28803;52.308;19.096;2022-11-20T06:13:40;-2.50;99.90
43185;DHT22;28803;52.308;19.096;2022-11-20T06:16:10;-2.50;99.90
43185;DHT22;28803;52.308;19.096;2022-11-20T06:18:37;-2.40;99.90
43185;DHT22;28803;52.308;19.096;2022-11-20T06:21:13;-2.40;99.90
43185;DHT22;28803;52.308;19.096;2022-11-20T06:23:41;-2.40;99.90
43185;DHT22;28803;52.308;19.096;2022-11-20T06:26:14;-2.40;99.90
43185;DHT22;28803;52.308;19.096;2022-11-20T06:28:41;-2.30;99.90
43185;DHT22;28803;52.308;19.096;2022-11-20T06:31:10;-2.30;99.90
43185;DHT22;28803;52.308;19.096;2022-11-20T06:33:37;-2.30;99.90
43185;DHT22;28803;52.308;19.096;2022-11-20T06:36:05;-2.30;99.90
43185;DHT22;28803;52.308;19.096;2022-11-20T06:38:37;-2.30;99.90
43185;DHT22;28803;52.308;19.096;2022-11-20T06:41:06;-2.30;99.90
43185;DHT22;28803;52.308;19.096;2022-11-20T06:43:33;-2.30;99.90
43185;DHT22;28803;52.308;19.096;2022-11-20T06:46:00;-2.20;99.90
43185;DHT22;28803;52.308;19.096;2022-11-20T06:48:28;-2.20;99.90
43185;DHT22;28803;52.308;19.096;2022-11-20T06:50:56;-2.20;99.90
43185;DHT22;28803;52.308;19.096;2022-11-20T06:53:24;-2.20;99.90
43185;DHT22;28803;52.308;19.096;2022-11-20T06:55:51;-2.10;99.90
43185;DHT22;28803;52.308;19.096;2022-11-20T06:58:19;-2.10;99.90
43185;DHT22;28803;52.308;19.096;2022-11-20T07:00:46;-2.10;99.90
43185;DHT22;28803;52.308;19.096;2022-11-20T07:03:13;-2.10;99.90
43185;DHT22;28803;52.308;19.096;2022-11-20T07:05:40;-2.10;99.90
43185;DHT22;28803;52.308;19.096;2022-11-20T07:08:08;-2.10;99.90
43185;DHT22;28803;52.308;19.096;2022-11-20T07:10:35;-2.00;99.90
43185;DHT22;28803;52.308;19.096;2022-11-20T07:13:02;-2.00;99.90
43185;DHT22;28803;52.308;19.096;2022-11-20T07:15:29;-2.00;99.90
43185;DHT22;28803;52.308;19.096;2022-11-20T07:17:59;-1.90;99.90
43185;DHT22;28803;52.308;19.096;2022-11-20T07:20:27;-1.90;99.90
43185;DHT22;28803;52.308;19.096;2022-11-20T07:22:55;-1.80;99.90
43185;DHT22;28803;52.308;19.096;2022-11-20T07:25:23;-1.80;99.90
43185;DHT22;28803;52.308;19.096;2022-11-20T07:27:50;-1.70;99.90
43185;DHT22;28803;52.308;19.096;2022-11-20T07:30:18;-1.70;99.90
43185;DHT22;28803;52.308;19.096;2022-11-20T07:32:51;-1.60;99.90
43185;DHT22;28803;52.308;19.096;2022-11-20T07:35:19;-1.50;99.90
43185;DHT22;28803;52.308;19.096;2022-11-20T07:37:47;-1.40;99.90
43185;DHT22;28803;52.308;19.096;2022-11-20T07:40:16;-1.30;99.90
43185;DHT22;28803;52.308;19.096;2022-11-20T07:42:54;-1.30;99.90
43185;DHT22;28803;52.308;19.096;2022-11-20T07:45:23;-1.20;99.90
43185;DHT22;28803;52.308;19.096;2022-11-20T07:47:50;-1.20;99.90
43185;DHT22;28803;52.308;19.096;2022-11-20T07:50:19;-1.10;99.90
43185;DHT22;28803;52.308;19.096;2022-11-20T07:52:46;-1.00;99.90
43185;DHT22;28803;52.308;19.096;2022-11-20T07:55:14;-0.90;99.90
43185;DHT22;28803;52.308;19.096;2022-11-20T07:57:41;-0.70;99.90
43185;DHT22;28803;52.308;19.096;2022-11-20T08:00:10;-0.60;99.90
43185;DHT22;28803;52.308;19.096;2022-11-20T08:02:38;-0.50;99.90
43185;DHT22;28803;52.308;19.096;2022-11-20T08:05:07;-0.50;99.90
43185;DHT22;28803;52.308;19.096;2022-11-20T08:07:42;-0.40;99.90
43185;DHT22;28803;52.308;19.096;2022-11-20T08:10:12;-0.40;99.90
43185;DHT22;28803;52.308;19.096;2022-11-20T08:12:50;-0.30;99.90
43185;DHT22;28803;52.308;19.096;2022-11-20T08:15:37;-0.20;99.90
43185;DHT22;28803;52.308;19.096;2022-11-20T08:18:05;0.20;99.90
43185;DHT22;28803;52.308;19.096;2022-11-20T08:20:52;1.00;99.90
43185;DHT22;28803;52.308;19.096;2022-11-20T08:23:19;1.60;99.90
43185;DHT22;28803;52.308;19.096;2022-11-20T08:25:49;2.80;99.90
43185;DHT22;28803;52.308;19.096;2022-11-20T08:28:16;4.10;97.50
43185;DHT22;28803;52.308;19.096;2022-11-20T08:30:49;5.70;93.70
43185;DHT22;28803;52.308;19.096;2022-11-20T08:33:17;8.00;80.80
43185;DHT22;28803;52.308;19.096;2022-11-20T08:35:45;9.90;71.50
43185;DHT22;28803;52.308;19.096;2022-11-20T08:38:12;11.30;63.70
43185;DHT22;28803;52.308;19.096;2022-11-20T08:40:39;11.70;60.20
43185;DHT22;28803;52.308;19.096;2022-11-20T08:43:06;11.80;59.50
43185;DHT22;28803;52.308;19.096;2022-11-20T08:45:33;12.20;57.80
43185;DHT22;28803;52.308;19.096;2022-11-20T08:48:02;11.90;57.70
43185;DHT22;28803;52.308;19.096;2022-11-20T08:50:31;12.10;57.50
43185;DHT22;28803;52.308;19.096;2022-11-20T08:53:03;12.70;55.80
43185;DHT22;28803;52.308;19.096;2022-11-20T08:55:32;12.50;55.50
43185;DHT22;28803;52.308;19.096;2022-11-20T08:58:03;12.60;55.20
43185;DHT22;28803;52.308;19.096;2022-11-20T09:00:32;13.40;53.90
43185;DHT22;28803;52.308;19.096;2022-11-20T09:03:00;14.30;51.90
43185;DHT22;28803;52.308;19.096;2022-11-20T09:05:29;14.10;51.90
43185;DHT22;28803;52.308;19.096;2022-11-20T09:07:56;14.20;51.20
43185;DHT22;28803;52.308;19.096;2022-11-20T09:10:24;13.40;51.50
43185;DHT22;28803;52.308;19.096;2022-11-20T09:12:52;12.20;53.30
43185;DHT22;28803;52.308;19.096;2022-11-20T09:15:19;11.50;55.50
43185;DHT22;28803;52.308;19.096;2022-11-20T09:18:00;11.90;55.40
43185;DHT22;28803;52.308;19.096;2022-11-20T09:20:29;13.00;53.10
43185;DHT22;28803;52.308;19.096;2022-11-20T09:22:57;13.70;51.80
43185;DHT22;28803;52.308;19.096;2022-11-20T09:25:25;14.40;50.80
43185;DHT22;28803;52.308;19.096;2022-11-20T09:27:57;14.90;49.70
43185;DHT22;28803;52.308;19.096;2022-11-20T09:30:24;15.30;49.00
43185;DHT22;28803;52.308;19.096;2022-11-20T09:32:51;15.80;47.90
43185;DHT22;28803;52.308;19.096;2022-11-20T09:35:18;16.00;46.40
43185;DHT22;28803;52.308;19.096;2022-11-20T09:37:45;14.90;47.00
43185;DHT22;28803;52.308;19.096;2022-11-20T09:40:26;12.80;49.90
43185;DHT22;28803;52.308;19.096;2022-11-20T09:42:57;9.90;55.40
43185;DHT22;28803;52.308;19.096;2022-11-20T09:48:29;5.20;67.90
43185;DHT22;28803;52.308;19.096;2022-11-20T09:56:26;2.00;90.60
43185;DHT22;28803;52.308;19.096;2022-11-20T09:58:55;1.70;94.00
43185;DHT22;28803;52.308;19.096;2022-11-20T10:01:29;1.40;96.10
43185;DHT22;28803;52.308;19.096;2022-11-20T10:03:58;1.20;97.70
43185;DHT22;28803;52.308;19.096;2022-11-20T10:06:31;1.00;99.00
43185;DHT22;28803;52.308;19.096;2022-11-20T10:14:43;1.10;99.90
43185;DHT22;28803;52.308;19.096;2022-11-20T10:23:01;1.20;99.90
43185;DHT22;28803;52.308;19.096;2022-11-20T10:31:03;1.30;99.90
43185;DHT22;28803;52.308;19.096;2022-11-20T10:33:36;1.30;99.90
43185;DHT22;28803;52.308;19.096;2022-11-20T10:36:28;1.30;99.90
43185;DHT22;28803;52.308;19.096;2022-11-20T10:39:01;1.40;99.90
43185;DHT22;28803;52.308;19.096;2022-11-20T10:41:36;1.50;99.90
43185;DHT22;28803;52.308;19.096;2022-11-20T10:44:12;1.60;99.90
43185;DHT22;28803;52.308;19.096;2022-11-20T10:46:44;1.60;99.90
43185;DHT22;28803;52.308;19.096;2022-11-20T10:49:16;1.70;99.90
43185;DHT22;28803;52.308;19.096;2022-11-20T10:51:59;1.90;99.90
43185;DHT22;28803;52.308;19.096;2022-11-20T10:57:18;2.80;99.80
43185;DHT22;28803;52.308;19.096;2022-11-20T11:02:24;3.10;99.00
43185;DHT22;28803;52.308;19.096;2022-11-20T11:04:54;3.00;98.80
43185;DHT22;28803;52.308;19.096;2022-11-20T11:07:30;2.70;98.70
43185;DHT22;28803;52.308;19.096;2022-11-20T11:09:58;2.60;99.20
43185;DHT22;28803;52.308;19.096;2022-11-20T11:12:28;2.40;99.50
43185;DHT22;28803;52.308;19.096;2022-11-20T11:14:56;2.30;99.90
43185;DHT22;28803;52.308;19.096;2022-11-20T11:17:29;2.20;99.90
43185;DHT22;28803;52.308;19.096;2022-11-20T11:22:46;2.20;99.90
43185;DHT22;28803;52.308;19.096;2022-11-20T11:25:33;2.20;99.90
43185;DHT22;28803;52.308;19.096;2022-11-20T11:28:23;2.20;99.90
43185;DHT22;28803;52.308;19.096;2022-11-20T11:30:53;2.20;99.90
43185;DHT22;28803;52.308;19.096;2022-11-20T11:33:26;2.20;99.90
43185;DHT22;28803;52.308;19.096;2022-11-20T11:36:04;2.20;99.90
43185;DHT22;28803;52.308;19.096;2022-11-20T11:38:51;2.20;99.90
43185;DHT22;28803;52.308;19.096;2022-11-20T11:41:39;2.20;99.90
43185;DHT22;28803;52.308;19.096;2022-11-20T11:44:43;2.30;99.90
43185;DHT22;28803;52.308;19.096;2022-11-20T11:47:30;2.30;99.90
43185;DHT22;28803;52.308;19.096;2022-11-20T12:01:08;2.40;99.90
43185;DHT22;28803;52.308;19.096;2022-11-20T12:03:39;2.50;99.90
43185;DHT22;28803;52.308;19.096;2022-11-20T12:06:14;2.50;99.90
43185;DHT22;28803;52.308;19.096;2022-11-20T12:08:47;2.50;99.90
43185;DHT22;28803;52.308;19.096;2022-11-20T12:11:17;2.40;99.90
43185;DHT22;28803;52.308;19.096;2022-11-20T12:13:55;2.40;99.90
43185;DHT22;28803;52.308;19.096;2022-11-20T12:16:22;2.40;99.50
43185;DHT22;28803;52.308;19.096;2022-11-20T12:18:51;2.30;99.70
43185;DHT22;28803;52.308;19.096;2022-11-20T12:24:17;2.40;99.70
43185;DHT22;28803;52.308;19.096;2022-11-20T12:30:03;2.10;99.30
43185;DHT22;28803;52.308;19.096;2022-11-20T12:35:55;1.90;99.60
43185;DHT22;28803;52.308;19.096;2022-11-20T12:38:54;1.90;99.80
43185;DHT22;28803;52.308;19.096;2022-11-20T12:50:38;1.80;99.90
43185;DHT22;28803;52.308;19.096;2022-11-20T13:07:43;1.90;99.90
43185;DHT22;28803;52.308;19.096;2022-11-20T13:10:23;1.80;99.90
43185;DHT22;28803;52.308;19.096;2022-11-20T13:13:12;1.80;99.90
43185;DHT22;28803;52.308;19.096;2022-11-20T13:18:39;1.80;99.90
43185;DHT22;28803;52.308;19.096;2022-11-20T13:21:18;1.80;99.90
43185;DHT22;28803;52.308;19.096;2022-11-20T13:23:45;1.70;99.90
43185;DHT22;28803;52.308;19.096;2022-11-20T13:26:22;1.70;99.90
43185;DHT22;28803;52.308;19.096;2022-11-20T13:29:12;1.60;99.90
43185;DHT22;28803;52.308;19.096;2022-11-20T13:31:45;1.60;99.90
43185;DHT22;28803;52.308;19.096;2022-11-20T13:34:24;1.60;99.90
43185;DHT22;28803;52.308;19.096;2022-11-20T13:36:55;1.50;99.90
43185;DHT22;28803;52.308;19.096;2022-11-20T13:39:26;1.50;99.90
43185;DHT22;28803;52.308;19.096;2022-11-20T13:41:56;1.50;99.90
43185;DHT22;28803;52.308;19.096;2022-11-20T13:46:55;1.40;99.90
43185;DHT22;28803;52.308;19.096;2022-11-20T13:49:38;1.40;99.90
43185;DHT22;28803;52.308;19.096;2022-11-20T13:55:10;1.30;99.90
43185;DHT22;28803;52.308;19.096;2022-11-20T14:00:23;1.20;99.90
43185;DHT22;28803;52.308;19.096;2022-11-20T14:05:31;1.00;99.90
43185;DHT22;28803;52.308;19.096;2022-11-20T14:08:03;0.90;99.90
43185;DHT22;28803;52.308;19.096;2022-11-20T14:10:30;0.80;99.90
43185;DHT22;28803;52.308;19.096;2022-11-20T14:13:09;0.70;99.90
43185;DHT22;28803;52.308;19.096;2022-11-20T14:15:36;0.60;99.90
43185;DHT22;28803;52.308;19.096;2022-11-20T14:18:20;0.60;99.90
43185;DHT22;28803;52.308;19.096;2022-11-20T14:20:48;0.50;99.90
43185;DHT22;28803;52.308;19.096;2022-11-20T14:23:27;0.40;99.90
43185;DHT22;28803;52.308;19.096;2022-11-20T14:25:56;0.40;99.90
43185;DHT22;28803;52.308;19.096;2022-11-20T14:28:29;0.30;99.90
43185;DHT22;28803;52.308;19.096;2022-11-20T14:30:56;0.20;99.90
43185;DHT22;28803;52.308;19.096;2022-11-20T14:33:26;0.20;99.90
43185;DHT22;28803;52.308;19.096;2022-11-20T14:35:57;0.20;99.90
43185;DHT22;28803;52.308;19.096;2022-11-20T14:38:27;0.10;99.90
43185;DHT22;28803;52.308;19.096;2022-11-20T14:41:06;0.10;99.90
43185;DHT22;28803;52.308;19.096;2022-11-20T14:43:33;0.10;99.90
43185;DHT22;28803;52.308;19.096;2022-11-20T14:46:04;0.00;99.90
43185;DHT22;28803;52.308;19.096;2022-11-20T14:48:53;0.00;99.90
43185;DHT22;28803;52.308;19.096;2022-11-20T14:54:17;0.00;99.90
43185;DHT22;28803;52.308;19.096;2022-11-20T14:56:59;-0.10;99.90
43185;DHT22;28803;52.308;19.096;2022-11-20T14:59:32;-0.10;99.90
43185;DHT22;28803;52.308;19.096;2022-11-20T15:02:05;-0.10;99.90
43185;DHT22;28803;52.308;19.096;2022-11-20T15:04:43;-0.10;99.90
43185;DHT22;28803;52.308;19.096;2022-11-20T15:07:10;-0.10;99.90
43185;DHT22;28803;52.308;19.096;2022-11-20T15:09:38;-0.10;99.90
43185;DHT22;28803;52.308;19.096;2022-11-20T15:12:05;-0.10;99.90
43185;DHT22;28803;52.308;19.096;2022-11-20T15:14:32;-0.20;99.90
43185;DHT22;28803;52.308;19.096;2022-11-20T15:16:59;-0.20;99.90
43185;DHT22;28803;52.308;19.096;2022-11-20T15:19:27;-0.30;99.90
43185;DHT22;28803;52.308;19.096;2022-11-20T15:21:54;-0.30;99.90
43185;DHT22;28803;52.308;19.096;2022-11-20T15:24:21;-0.30;99.90
43185;DHT22;28803;52.308;19.096;2022-11-20T15:26:49;-0.40;99.90
43185;DHT22;28803;52.308;19.096;2022-11-20T15:29:24;-0.40;99.90
43185;DHT22;28803;52.308;19.096;2022-11-20T15:31:51;-0.50;99.90
43185;DHT22;28803;52.308;19.096;2022-11-20T15:34:19;-0.50;99.90
43185;DHT22;28803;52.308;19.096;2022-11-20T15:36:46;-0.50;99.90
43185;DHT22;28803;52.308;19.096;2022-11-20T15:39:14;-0.50;99.90
43185;DHT22;28803;52.308;19.096;2022-11-20T15:41:41;-0.60;99.90
43185;DHT22;28803;52.308;19.096;2022-11-20T15:44:08;-0.60;99.90
43185;DHT22;28803;52.308;19.096;2022-11-20T15:46:38;-0.70;99.90
43185;DHT22;28803;52.308;19.096;2022-11-20T15:49:13;-0.70;99.90
43185;DHT22;28803;52.308;19.096;2022-11-20T15:51:47;-0.70;99.90
43185;DHT22;28803;52.308;19.096;2022-11-20T15:54:22;-0.70;99.90
43185;DHT22;28803;52.308;19.096;2022-11-20T15:56:50;-0.60;99.90
43185;DHT22;28803;52.308;19.096;2022-11-20T15:59:19;-0.70;99.90
43185;DHT22;28803;52.308;19.096;2022-11-20T16:01:46;-0.70;99.90
43185;DHT22;28803;52.308;19.096;2022-11-20T16:04:16;-0.70;99.90
43185;DHT22;28803;52.308;19.096;2022-11-20T16:06:43;-0.70;99.90
43185;DHT22;28803;52.308;19.096;2022-11-20T16:09:10;-0.70;99.90
43185;DHT22;28803;52.308;19.096;2022-11-20T16:11:37;-0.80;99.90
43185;DHT22;28803;52.308;19.096;2022-11-20T16:14:06;-0.90;99.90
43185;DHT22;28803;52.308;19.096;2022-11-20T16:16:52;-0.90;99.90
43185;DHT22;28803;52.308;19.096;2022-11-20T16:19:19;-1.00;99.90
43185;DHT22;28803;52.308;19.096;2022-11-20T16:21:46;-1.00;99.90
43185;DHT22;28803;52.308;19.096;2022-11-20T16:24:14;-1.00;99.90
43185;DHT22;28803;52.308;19.096;2022-11-20T16:26:42;-1.00;99.90
43185;DHT22;28803;52.308;19.096;2022-11-20T16:29:10;-1.00;99.90
43185;DHT22;28803;52.308;19.096;2022-11-20T16:31:37;-1.00;99.90
43185;DHT22;28803;52.308;19.096;2022-11-20T16:34:06;-1.00;99.90
43185;DHT22;28803;52.308;19.096;2022-11-20T16:36:49;-1.10;99.90
43185;DHT22;28803;52.308;19.096;2022-11-20T16:39:16;-1.10;99.90
43185;DHT22;28803;52.308;19.096;2022-11-20T16:41:49;-1.10;99.90
43185;DHT22;28803;52.308;19.096;2022-11-20T16:44:16;-1.10;99.90
43185;DHT22;28803;52.308;19.096;2022-11-20T16:46:43;-1.20;99.90
43185;DHT22;28803;52.308;19.096;2022-11-20T16:49:12;-1.30;99.90
43185;DHT22;28803;52.308;19.096;2022-11-20T16:51:39;-1.30;99.90
43185;DHT22;28803;52.308;19.096;2022-11-20T16:54:08;-1.30;99.90
43185;DHT22;28803;52.308;19.096;2022-11-20T16:56:35;-1.40;99.90
43185;DHT22;28803;52.308;19.096;2022-11-20T16:59:03;-1.40;99.90
43185;DHT22;28803;52.308;19.096;2022-11-20T17:01:31;-1.40;99.90
43185;DHT22;28803;52.308;19.096;2022-11-20T17:04:04;-1.40;99.90
43185;DHT22;28803;52.308;19.096;2022-11-20T17:06:33;-1.40;99.90
43185;DHT22;28803;52.308;19.096;2022-11-20T17:09:02;-1.40;99.90
43185;DHT22;28803;52.308;19.096;2022-11-20T17:11:29;-1.40;99.90
43185;DHT22;28803;52.308;19.096;2022-11-20T17:13:57;-1.40;99.90
43185;DHT22;28803;52.308;19.096;2022-11-20T17:16:26;-1.40;99.90
43185;DHT22;28803;52.308;19.096;2022-11-20T17:18:56;-1.40;99.90
43185;DHT22;28803;52.308;19.096;2022-11-20T17:21:29;-1.30;99.90
43185;DHT22;28803;52.308;19.096;2022-11-20T17:24:00;-1.30;99.90
43185;DHT22;28803;52.308;19.096;2022-11-20T17:26:28;-1.30;99.90